Stadskanaal Airfield

EHST · Groningen, 荷兰

使用的METAR站距离机场33 km。
罗盘
风向 的 风向 的 风向 到 风向 250° Stadskanaal Airfield 6/24
风: 14 kt, 4 beaufort

14 kt

4 kt
改变
0 ft 1.000 2.000 3.000 4.000 5.000
Cloud Cloud
FEW 1.100
Cloud Cloud Cloud Cloud Cloud Cloud
BKN 1.300
Cloud Cloud Cloud Cloud Cloud Cloud
BKN 1.700
METAR EHGG 102325Z AUTO 25014KT 210V280 9999 FEW011 BKN013 BKN017 10/08 Q0994

METAR Stadskanaal Airfield - EHST

Stadskanaal Airfield是,荷兰中的小机场。 该机场位于纬度52,99677和经度7,02278。 该机场有一条跑道: 6/24. 本场的ICAO机场代码为EHST。 机场在Amsterdam FIR中。

该航空气象观测是针对Groningen Airport Eelde在2023年12月11日 00:25, 当地时间进行的。

机场观察

风向为250°,速度为14 kt。 风向在210°和280°之间变化。

可见度为10 km 或者更多。

有几云在1.100 ft的高度, 碎云在1.300 ft的高度 和 碎云在1.700 ft的高度。 破损或更高的上限为1.300 ft。

温度为10 °C,阵风为6 °C。 露点为8 °C,相对湿度为88%。 海平面上的气压为994 hPa (QNH)。

白天

今天,太阳从08:33升起,在16:15降落。 这适用于Stadskanaal Airfield,世界夏令时可能有所不同。 当地时间与世界标准时间之间的时差为+1 小时。 当前,没有夏令时有效。

公司介绍

我们没有关于这个机场的公司信息。

体会

到Vliegles.nl去找飞行课程,跳伞和其他飞行体验。 浏览页面,了解Stadskanaal Airfield附近所有可用的活动。 你也可以使用搜索功能来寻找你所在地附近的特定飞行课程、跳伞或其他飞行体验。

跑道

Id 标题 侧风 逆风 侧风 %
6/24 055°-235° 4 kt 14 kt 26 %

逆风成分最大的方向会被突出显示,并用于横风计算。 这并不一定意味着这个方向在使用。

乌云

1.100 ft FEW 几云
1.300 ft BKN 碎云
1.700 ft BKN 碎云

温度 & 天气

温度 10 °C
露点 8 °C
相对湿度 88%
风寒 6 °C
Kp-index 0 (0-9)

白天

日出
08:36 (8:05)
中午
12:26
日落
16:16

小工具

你想在你的网站上有一个关于Stadskanaal Airfield的当前航空天气(METAR)的小部件吗?

显示HTML代码